createdAt,value
2023-03-27T00:01:30.610Z,71.40
2023-03-27T00:03:58.650Z,71.50
2023-03-27T00:06:25.610Z,71.80
2023-03-27T00:08:53.057Z,72.10
2023-03-27T00:11:21.441Z,72.20
2023-03-27T00:13:54.420Z,72.40
2023-03-27T00:16:23.872Z,72.80
2023-03-27T00:18:51.589Z,73.00
2023-03-27T00:21:19.446Z,73.30
2023-03-27T00:23:46.846Z,73.50
2023-03-27T00:26:14.418Z,73.60
2023-03-27T00:28:42.137Z,74.30
2023-03-27T00:31:13.591Z,74.50
2023-03-27T00:33:41.390Z,74.70
2023-03-27T00:36:09.519Z,74.90
2023-03-27T00:38:36.774Z,75.30
2023-03-27T00:41:04.876Z,75.60
2023-03-27T00:43:35.025Z,75.80
2023-03-27T00:46:25.489Z,76.20
2023-03-27T00:48:53.357Z,76.60
2023-03-27T00:51:22.298Z,76.80
2023-03-27T00:53:51.238Z,76.90
2023-03-27T00:56:18.583Z,77.00
2023-03-27T00:58:56.854Z,77.00
2023-03-27T01:01:27.177Z,77.00
2023-03-27T01:03:54.815Z,77.00
2023-03-27T01:06:22.378Z,77.00
2023-03-27T01:08:49.381Z,77.10
2023-03-27T01:11:52.380Z,77.00
2023-03-27T01:14:34.306Z,77.10
2023-03-27T01:17:39.806Z,77.00
2023-03-27T01:20:30.295Z,76.90
2023-03-27T01:23:03.291Z,76.80
2023-03-27T01:25:42.388Z,76.80
2023-03-27T01:28:21.768Z,76.70
2023-03-27T01:30:48.971Z,76.60
2023-03-27T01:33:50.665Z,76.70
2023-03-27T01:36:34.759Z,76.80
2023-03-27T01:39:27.177Z,76.80
2023-03-27T01:41:57.079Z,76.70
2023-03-27T01:44:47.542Z,76.80
2023-03-27T01:47:42.285Z,76.90
2023-03-27T01:50:27.318Z,76.80
2023-03-27T01:53:03.850Z,76.80
2023-03-27T01:55:36.501Z,76.70
2023-03-27T01:58:14.007Z,76.60
2023-03-27T02:00:51.936Z,76.30
2023-03-27T02:03:36.121Z,76.20
2023-03-27T02:06:09.060Z,76.00
2023-03-27T02:08:54.767Z,75.90
2023-03-27T02:11:26.148Z,75.70
2023-03-27T02:14:09.028Z,75.60
2023-03-27T02:16:42.485Z,75.50
2023-03-27T02:19:23.323Z,75.30
2023-03-27T02:21:50.300Z,75.30
2023-03-27T02:24:18.710Z,75.20
2023-03-27T02:26:48.832Z,75.10
2023-03-27T02:29:35.299Z,75.00
2023-03-27T02:32:27.330Z,75.00
2023-03-27T02:35:20.190Z,74.90
2023-03-27T02:38:25.250Z,75.00
2023-03-27T02:41:46.244Z,75.00
2023-03-27T02:44:46.837Z,75.00
2023-03-27T02:47:23.293Z,75.10
2023-03-27T02:49:56.184Z,75.30
2023-03-27T02:52:44.964Z,75.50
2023-03-27T02:55:28.183Z,75.30
2023-03-27T02:57:59.808Z,75.30
2023-03-27T03:00:41.235Z,75.40
2023-03-27T03:03:54.974Z,75.50
2023-03-27T03:06:32.778Z,75.60
2023-03-27T03:09:05.424Z,75.60
2023-03-27T03:11:36.194Z,75.90
2023-03-27T03:14:03.104Z,76.10
2023-03-27T03:16:30.388Z,76.30
2023-03-27T03:18:57.679Z,76.60
2023-03-27T03:21:24.547Z,76.80
2023-03-27T03:23:58.027Z,77.20
2023-03-27T03:26:27.392Z,77.50
2023-03-27T03:29:00.707Z,77.80
2023-03-27T03:31:43.272Z,77.90
2023-03-27T03:34:22.454Z,78.00
2023-03-27T03:36:49.918Z,78.00
2023-03-27T03:39:22.434Z,78.00
2023-03-27T03:41:50.255Z,78.00
2023-03-27T03:44:17.363Z,78.10
2023-03-27T03:46:44.278Z,78.20
2023-03-27T03:49:11.431Z,78.30
2023-03-27T03:51:38.320Z,78.40
2023-03-27T03:54:06.662Z,78.40
2023-03-27T03:56:34.445Z,78.50
2023-03-27T03:59:02.104Z,78.60
2023-03-27T04:01:30.190Z,78.70
2023-03-27T04:04:02.230Z,78.70
2023-03-27T04:06:43.235Z,78.70
2023-03-27T04:09:11.217Z,78.70
2023-03-27T04:12:00.906Z,78.60
2023-03-27T04:14:47.989Z,78.60
2023-03-27T04:17:38.407Z,78.50
2023-03-27T04:20:10.654Z,78.30
2023-03-27T04:22:38.398Z,78.20
2023-03-27T04:25:08.661Z,78.00
2023-03-27T04:27:35.736Z,78.00
2023-03-27T04:30:16.093Z,78.00
2023-03-27T04:33:01.800Z,78.00
2023-03-27T04:35:40.352Z,77.80
2023-03-27T04:38:14.752Z,77.60
2023-03-27T04:40:49.341Z,77.50
2023-03-27T04:43:17.451Z,77.30
2023-03-27T04:45:48.219Z,77.30
2023-03-27T04:48:15.904Z,77.20
2023-03-27T04:50:49.365Z,77.10
2023-03-27T04:53:30.208Z,77.10
2023-03-27T04:55:57.614Z,77.10
2023-03-27T04:58:28.380Z,77.10
2023-03-27T05:00:57.374Z,77.40
2023-03-27T05:04:03.560Z,77.70
2023-03-27T05:06:48.447Z,77.90
2023-03-27T05:09:17.298Z,78.20
2023-03-27T05:11:44.874Z,78.50
2023-03-27T05:14:11.747Z,78.60
2023-03-27T05:16:41.289Z,78.70
2023-03-27T05:19:10.024Z,78.70
2023-03-27T05:21:41.435Z,78.70
2023-03-27T05:24:11.135Z,78.70
2023-03-27T05:26:39.180Z,78.70
2023-03-27T05:29:06.142Z,78.60
2023-03-27T05:31:37.134Z,78.50
2023-03-27T05:34:30.571Z,78.30
2023-03-27T05:37:05.716Z,78.10
2023-03-27T05:39:36.880Z,78.10
2023-03-27T05:42:08.649Z,78.20
2023-03-27T05:44:35.607Z,78.10
2023-03-27T05:47:02.837Z,78.10
2023-03-27T05:49:33.541Z,78.10
2023-03-27T05:52:09.489Z,78.20
2023-03-27T05:54:36.483Z,78.20
2023-03-27T05:57:09.338Z,78.10
2023-03-27T05:59:38.086Z,78.10
2023-03-27T06:02:21.090Z,78.00
2023-03-27T06:05:01.544Z,77.70
2023-03-27T06:07:34.397Z,77.70
2023-03-27T06:10:07.688Z,78.00
2023-03-27T06:12:46.412Z,77.90
2023-03-27T06:15:26.379Z,78.00
2023-03-27T06:18:12.201Z,78.20
2023-03-27T06:20:40.160Z,78.40
2023-03-27T06:23:08.243Z,78.60
2023-03-27T06:25:38.879Z,78.80
2023-03-27T06:28:09.766Z,78.70
2023-03-27T06:30:45.014Z,78.60
2023-03-27T06:33:31.575Z,78.40
2023-03-27T06:36:01.834Z,78.20
2023-03-27T06:38:34.823Z,78.00
2023-03-27T06:41:02.198Z,78.00
2023-03-27T06:43:49.316Z,78.10
2023-03-27T06:46:42.632Z,78.20
2023-03-27T06:49:38.099Z,78.20
2023-03-27T06:52:16.415Z,78.40
2023-03-27T06:54:44.479Z,78.60
2023-03-27T06:57:12.434Z,78.80
2023-03-27T07:00:18.996Z,79.10
2023-03-27T07:03:10.799Z,79.50
2023-03-27T07:05:51.200Z,79.80
2023-03-27T07:08:24.491Z,80.00
2023-03-27T07:13:25.271Z,79.90
2023-03-27T07:15:53.093Z,79.70
2023-03-27T07:18:22.468Z,79.60
2023-03-27T07:20:51.411Z,78.80
2023-03-27T07:23:22.020Z,79.20
2023-03-27T07:25:59.794Z,78.50
2023-03-27T07:28:45.444Z,78.70
2023-03-27T07:31:29.963Z,78.00
2023-03-27T07:34:01.085Z,77.00
2023-03-27T07:36:48.988Z,77.80
2023-03-27T07:39:16.236Z,77.30
2023-03-27T07:41:44.248Z,77.90
2023-03-27T07:44:33.975Z,77.30
2023-03-27T07:47:05.349Z,76.40
2023-03-27T07:49:39.718Z,75.60
2023-03-27T07:52:11.082Z,75.90
2023-03-27T07:54:59.028Z,74.90
2023-03-27T07:57:46.035Z,74.00
2023-03-27T08:00:24.735Z,73.60
2023-03-27T08:03:14.393Z,73.10
2023-03-27T08:05:55.985Z,73.50
2023-03-27T08:08:25.910Z,73.80
2023-03-27T08:10:58.247Z,73.70
2023-03-27T08:13:29.704Z,73.10
2023-03-27T08:16:14.433Z,72.60
2023-03-27T08:18:42.717Z,73.30
2023-03-27T08:21:11.753Z,73.20
2023-03-27T08:23:40.546Z,70.70
2023-03-27T08:26:22.278Z,70.60
2023-03-27T08:28:56.912Z,70.90
2023-03-27T08:31:30.609Z,71.30
2023-03-27T08:34:02.177Z,71.70
2023-03-27T08:36:58.290Z,72.50
2023-03-27T08:39:35.016Z,73.30
2023-03-27T08:42:08.305Z,73.20
2023-03-27T08:44:38.418Z,73.70
2023-03-27T08:47:29.780Z,72.70
2023-03-27T08:50:46.460Z,71.50
2023-03-27T08:53:47.491Z,70.70
2023-03-27T08:56:16.441Z,71.10
2023-03-27T08:58:45.718Z,70.00
2023-03-27T09:01:31.895Z,69.70
2023-03-27T09:04:05.377Z,67.30
2023-03-27T09:07:02.865Z,66.90
2023-03-27T09:09:38.651Z,67.10
2023-03-27T09:12:42.741Z,67.20
2023-03-27T09:15:15.484Z,66.30
2023-03-27T09:17:57.518Z,65.90
2023-03-27T09:20:27.776Z,66.90
2023-03-27T09:23:09.089Z,65.70
2023-03-27T09:25:59.961Z,64.90
2023-03-27T09:29:20.377Z,65.10
2023-03-27T09:31:55.992Z,65.40
2023-03-27T09:34:26.620Z,68.00
2023-03-27T09:36:54.674Z,68.20
2023-03-27T09:39:32.501Z,68.00
2023-03-27T09:42:39.429Z,68.20
2023-03-27T09:45:10.278Z,69.00
2023-03-27T09:48:05.306Z,71.10
2023-03-27T09:50:44.454Z,71.50
2023-03-27T09:53:25.861Z,73.20
2023-03-27T09:56:16.473Z,74.70
2023-03-27T09:58:51.260Z,74.80
2023-03-27T10:01:23.676Z,75.00
2023-03-27T10:03:57.079Z,75.10
2023-03-27T10:06:44.497Z,75.50
2023-03-27T10:09:40.995Z,77.50
2023-03-27T10:12:20.628Z,76.50
2023-03-27T10:14:52.693Z,77.20
2023-03-27T10:17:39.962Z,76.20
2023-03-27T10:20:15.843Z,77.40
2023-03-27T10:22:54.865Z,75.00
2023-03-27T10:25:34.405Z,74.10
2023-03-27T10:28:23.174Z,75.00
2023-03-27T10:31:40.229Z,71.80
2023-03-27T10:34:36.706Z,72.90
2023-03-27T10:37:28.448Z,73.70
2023-03-27T10:40:21.570Z,74.60
2023-03-27T10:43:02.276Z,74.30
2023-03-27T10:45:32.497Z,74.20
2023-03-27T10:48:01.956Z,73.30
2023-03-27T10:50:44.268Z,72.70
2023-03-27T10:53:21.762Z,72.50
2023-03-27T10:56:22.402Z,72.40
2023-03-27T10:59:00.450Z,71.70
2023-03-27T11:01:35.393Z,70.40
2023-03-27T11:04:26.056Z,69.00
2023-03-27T11:07:03.353Z,69.60
2023-03-27T11:09:38.580Z,69.00
2023-03-27T11:12:16.668Z,68.20
2023-03-27T11:15:30.452Z,70.30
2023-03-27T11:18:03.047Z,64.80
2023-03-27T11:20:56.540Z,62.30
2023-03-27T11:23:48.386Z,60.10
2023-03-27T11:26:16.846Z,61.00
2023-03-27T11:28:54.539Z,61.80
2023-03-27T11:31:48.412Z,62.40
2023-03-27T11:34:46.362Z,62.90
2023-03-27T11:37:45.461Z,62.30
2023-03-27T11:40:42.736Z,63.60
2023-03-27T11:43:15.309Z,64.10
2023-03-27T11:46:24.161Z,64.40
2023-03-27T11:49:25.083Z,64.90
2023-03-27T11:52:23.300Z,65.40
2023-03-27T11:55:23.774Z,66.10
2023-03-27T11:57:55.659Z,66.20
2023-03-27T12:00:47.595Z,66.60
2023-03-27T12:03:24.496Z,68.70
2023-03-27T12:06:25.509Z,69.80
2023-03-27T12:08:52.460Z,69.90
2023-03-27T12:11:21.405Z,69.90
2023-03-27T12:14:18.501Z,69.60
2023-03-27T12:17:18.702Z,68.70
2023-03-27T12:20:15.923Z,65.30
2023-03-27T12:23:02.680Z,65.10
2023-03-27T12:26:26.255Z,66.20
2023-03-27T12:29:25.366Z,64.10
2023-03-27T12:32:26.065Z,65.60
2023-03-27T12:34:59.450Z,66.00
2023-03-27T12:37:47.648Z,67.20
2023-03-27T12:40:35.025Z,67.90
2023-03-27T12:43:45.068Z,67.90
2023-03-27T12:46:24.508Z,66.60
2023-03-27T12:49:13.709Z,65.40
2023-03-27T12:52:02.746Z,66.10
2023-03-27T12:55:13.730Z,66.60
2023-03-27T12:58:00.755Z,68.00
2023-03-27T13:00:55.210Z,68.80
2023-03-27T13:03:54.583Z,69.00
2023-03-27T13:06:24.644Z,69.20
2023-03-27T13:09:14.030Z,70.40
2023-03-27T13:11:49.530Z,70.10
2023-03-27T13:14:42.239Z,66.80
2023-03-27T13:17:37.563Z,61.80
2023-03-27T13:20:12.640Z,59.90
2023-03-27T13:22:53.698Z,60.80
2023-03-27T13:25:48.338Z,55.00
2023-03-27T13:28:50.345Z,52.70
2023-03-27T13:31:40.612Z,51.90
2023-03-27T13:34:26.888Z,48.40
2023-03-27T13:37:11.796Z,49.80
2023-03-27T13:39:56.559Z,48.10
2023-03-27T13:42:37.889Z,47.30
2023-03-27T13:45:25.759Z,50.50
2023-03-27T13:48:50.378Z,53.50
2023-03-27T13:52:01.630Z,50.90
2023-03-27T13:54:47.220Z,49.00
2023-03-27T13:57:26.082Z,48.60
2023-03-27T14:00:31.975Z,49.50
2023-03-27T14:03:37.960Z,51.20
2023-03-27T14:06:48.396Z,53.00
2023-03-27T14:09:45.401Z,52.30
2023-03-27T14:13:01.768Z,49.70
2023-03-27T14:16:10.361Z,50.10
2023-03-27T14:19:10.663Z,48.80
2023-03-27T14:21:58.675Z,44.40
2023-03-27T14:25:05.404Z,44.50
2023-03-27T14:27:55.296Z,43.40
2023-03-27T14:30:26.334Z,41.10
2023-03-27T14:33:20.010Z,40.30
2023-03-27T14:35:54.788Z,42.00
2023-03-27T14:38:29.153Z,42.90
2023-03-27T14:41:02.076Z,44.30
2023-03-27T14:43:49.518Z,46.40
2023-03-27T14:46:17.587Z,45.50
2023-03-27T14:48:47.253Z,45.80
2023-03-27T14:51:21.521Z,43.40
2023-03-27T14:53:52.435Z,43.90
2023-03-27T14:56:30.729Z,43.70
2023-03-27T14:59:11.491Z,40.80
2023-03-27T15:01:54.346Z,44.50
2023-03-27T15:04:21.299Z,45.30
2023-03-27T15:06:50.064Z,46.20
2023-03-27T15:09:37.353Z,44.70
2023-03-27T15:12:23.839Z,42.50
2023-03-27T15:14:52.976Z,40.30
2023-03-27T15:17:20.797Z,39.00
2023-03-27T15:20:14.384Z,39.30
2023-03-27T15:22:46.123Z,40.60
2023-03-27T15:25:17.398Z,43.10
2023-03-27T15:27:52.733Z,44.10
2023-03-27T15:30:37.525Z,43.10
2023-03-27T15:33:08.115Z,38.00
2023-03-27T15:35:45.799Z,38.10
2023-03-27T15:38:15.749Z,36.50
2023-03-27T15:40:46.696Z,35.20
2023-03-27T15:43:13.679Z,34.80
2023-03-27T15:46:04.642Z,34.40
2023-03-27T15:48:35.168Z,33.40
2023-03-27T15:51:07.481Z,34.10
2023-03-27T15:53:39.965Z,34.70
2023-03-27T15:56:13.748Z,35.40
2023-03-27T15:58:55.188Z,35.40
2023-03-27T16:01:28.286Z,36.50
2023-03-27T16:04:01.729Z,37.90
2023-03-27T16:06:37.489Z,39.20
2023-03-27T16:09:17.971Z,40.80
2023-03-27T16:11:47.716Z,41.70
2023-03-27T16:14:47.463Z,44.10
2023-03-27T16:17:19.767Z,44.10
2023-03-27T16:19:59.920Z,44.20
2023-03-27T16:22:32.452Z,44.60
2023-03-27T16:25:01.367Z,45.30
2023-03-27T16:27:38.542Z,45.80
2023-03-27T16:30:08.400Z,46.00
2023-03-27T16:32:36.233Z,45.90
2023-03-27T16:35:03.273Z,45.20
2023-03-27T16:37:30.148Z,45.50
2023-03-27T16:39:58.131Z,45.60
2023-03-27T16:42:26.495Z,45.90
2023-03-27T16:44:53.904Z,44.60
2023-03-27T16:47:23.024Z,44.50
2023-03-27T16:50:03.580Z,45.40
2023-03-27T16:52:36.928Z,45.40
2023-03-27T16:55:07.161Z,46.60
2023-03-27T16:57:36.017Z,46.60
2023-03-27T17:00:04.435Z,46.70
2023-03-27T17:02:34.164Z,45.60
2023-03-27T17:05:02.319Z,44.70
2023-03-27T17:07:29.324Z,44.50
2023-03-27T17:09:56.321Z,44.90
2023-03-27T17:12:23.228Z,46.60
2023-03-27T17:14:50.065Z,51.30
2023-03-27T17:17:17.045Z,51.10
2023-03-27T17:19:43.896Z,53.80
2023-03-27T17:22:12.852Z,55.60
2023-03-27T17:24:53.323Z,56.40
2023-03-27T17:27:23.064Z,57.20
2023-03-27T17:29:53.168Z,57.20
2023-03-27T17:32:20.269Z,57.00
2023-03-27T17:34:47.121Z,57.60
2023-03-27T17:37:14.039Z,58.00
2023-03-27T17:39:41.186Z,58.50
2023-03-27T17:42:08.118Z,58.80
2023-03-27T17:44:35.142Z,58.80
2023-03-27T17:47:01.958Z,58.50
2023-03-27T17:49:29.779Z,58.30
2023-03-27T17:51:56.811Z,57.80
2023-03-27T17:54:23.786Z,57.20
2023-03-27T17:56:51.640Z,57.20
2023-03-27T17:59:18.958Z,58.20
2023-03-27T18:01:46.981Z,57.20
2023-03-27T18:04:13.861Z,57.50
2023-03-27T18:06:41.017Z,57.90
2023-03-27T18:09:09.629Z,58.10
2023-03-27T18:11:36.990Z,58.30
2023-03-27T18:14:04.029Z,58.80
2023-03-27T18:16:30.994Z,59.10
2023-03-27T18:18:59.966Z,59.20
2023-03-27T18:21:26.901Z,59.50
2023-03-27T18:23:56.004Z,59.70
2023-03-27T18:26:22.812Z,59.70
2023-03-27T18:28:49.640Z,59.80
2023-03-27T18:31:17.743Z,59.80
2023-03-27T18:33:44.783Z,60.00
2023-03-27T18:36:11.966Z,60.40
2023-03-27T18:38:40.832Z,60.40
2023-03-27T18:41:09.168Z,60.60
2023-03-27T18:43:36.542Z,60.80
2023-03-27T18:46:06.145Z,60.90
2023-03-27T18:48:33.627Z,60.90
2023-03-27T18:51:03.004Z,60.80
2023-03-27T18:53:31.408Z,60.70
2023-03-27T18:55:59.511Z,60.60
2023-03-27T18:58:28.024Z,60.60
2023-03-27T19:00:55.669Z,60.30
2023-03-27T19:03:24.295Z,60.40
2023-03-27T19:05:52.731Z,60.40
2023-03-27T19:08:21.816Z,60.70
2023-03-27T19:10:49.278Z,60.80
2023-03-27T19:13:42.462Z,61.00
2023-03-27T19:16:17.568Z,61.20
2023-03-27T19:19:13.553Z,61.40
2023-03-27T19:21:53.099Z,62.30
2023-03-27T19:24:36.864Z,62.90
2023-03-27T19:27:04.056Z,63.80
2023-03-27T19:29:32.022Z,63.60
2023-03-27T19:31:59.047Z,64.50
2023-03-27T19:34:36.434Z,64.90
2023-03-27T19:37:09.867Z,64.80
2023-03-27T19:39:37.044Z,64.90
2023-03-27T19:42:04.109Z,64.80
2023-03-27T19:44:31.653Z,64.80
2023-03-27T19:46:58.605Z,64.80
2023-03-27T19:49:26.491Z,64.70
2023-03-27T19:52:11.834Z,64.70
2023-03-27T19:54:38.721Z,64.70
2023-03-27T19:57:05.645Z,64.70
2023-03-27T19:59:32.458Z,64.70
2023-03-27T20:01:59.912Z,64.70
2023-03-27T20:04:26.936Z,64.90
2023-03-27T20:06:58.916Z,64.90
2023-03-27T20:09:25.908Z,65.20
2023-03-27T20:11:53.792Z,66.10
2023-03-27T20:14:20.819Z,65.40
2023-03-27T20:16:48.194Z,65.40
2023-03-27T20:19:16.785Z,65.50
2023-03-27T20:21:44.027Z,65.50
2023-03-27T20:24:17.188Z,65.50
2023-03-27T20:26:52.520Z,65.40
2023-03-27T20:29:24.834Z,65.20
2023-03-27T20:31:51.967Z,65.50
2023-03-27T20:34:19.771Z,65.80
2023-03-27T20:36:47.776Z,66.40
2023-03-27T20:39:49.844Z,66.90
2023-03-27T20:42:22.888Z,67.10
2023-03-27T20:44:58.139Z,67.40
2023-03-27T20:47:25.070Z,67.50
2023-03-27T20:49:51.929Z,67.50
2023-03-27T20:52:19.720Z,68.10
2023-03-27T20:54:47.789Z,68.40
2023-03-27T20:57:16.782Z,68.70
2023-03-27T20:59:45.591Z,68.80
2023-03-27T21:02:18.824Z,68.90
2023-03-27T21:04:46.665Z,69.00
2023-03-27T21:07:15.747Z,69.00
2023-03-27T21:09:44.863Z,68.90
2023-03-27T21:12:11.803Z,68.80
2023-03-27T21:14:39.312Z,69.00
2023-03-27T21:17:06.110Z,69.00
2023-03-27T21:19:33.007Z,69.20
2023-03-27T21:21:59.919Z,69.20
2023-03-27T21:24:27.084Z,69.50
2023-03-27T21:26:54.022Z,69.70
2023-03-27T21:29:21.063Z,69.90
2023-03-27T21:31:48.014Z,70.20
2023-03-27T21:34:14.916Z,70.50
2023-03-27T21:36:41.823Z,70.80
2023-03-27T21:39:10.329Z,70.90
2023-03-27T21:41:37.216Z,71.00
2023-03-27T21:44:04.183Z,71.20
2023-03-27T21:46:31.186Z,71.10
2023-03-27T21:48:59.240Z,71.10
2023-03-27T21:51:26.192Z,71.20
2023-03-27T21:53:53.311Z,71.30
2023-03-27T21:56:20.340Z,71.50
2023-03-27T21:58:47.143Z,71.60
2023-03-27T22:01:15.142Z,71.70
2023-03-27T22:03:42.079Z,71.70
2023-03-27T22:06:12.413Z,71.90
2023-03-27T22:08:42.376Z,71.90
2023-03-27T22:11:10.782Z,72.10
2023-03-27T22:13:38.737Z,72.30
2023-03-27T22:16:14.037Z,72.50
2023-03-27T22:18:41.858Z,72.60
2023-03-27T22:21:22.252Z,72.80
2023-03-27T22:23:50.995Z,72.80
2023-03-27T22:26:39.068Z,73.70
2023-03-27T22:29:10.345Z,72.90
2023-03-27T22:31:37.654Z,72.80
2023-03-27T22:34:05.999Z,72.80
2023-03-27T22:36:33.738Z,72.80
2023-03-27T22:39:01.580Z,73.00
2023-03-27T22:41:28.526Z,73.00
2023-03-27T22:43:55.952Z,72.90
2023-03-27T22:46:23.991Z,72.90
2023-03-27T22:48:58.747Z,72.90
2023-03-27T22:51:28.918Z,73.00
2023-03-27T22:53:55.902Z,73.00
2023-03-27T22:56:23.091Z,72.90
2023-03-27T22:58:50.060Z,72.70
2023-03-27T23:01:16.949Z,72.50
2023-03-27T23:03:44.025Z,72.50
2023-03-27T23:06:22.835Z,72.60
2023-03-27T23:08:50.903Z,72.50
2023-03-27T23:11:19.344Z,72.40
2023-03-27T23:13:46.491Z,72.40
2023-03-27T23:16:13.620Z,72.20
2023-03-27T23:18:40.756Z,72.20
2023-03-27T23:21:10.477Z,72.30
2023-03-27T23:23:38.900Z,72.40
2023-03-27T23:26:06.675Z,72.40
2023-03-27T23:28:36.185Z,72.40
2023-03-27T23:31:05.589Z,72.50
2023-03-27T23:33:38.274Z,72.50
2023-03-27T23:36:11.337Z,72.50
2023-03-27T23:38:38.539Z,72.50
2023-03-27T23:41:06.380Z,72.50
2023-03-27T23:43:33.855Z,72.50
2023-03-27T23:46:01.080Z,72.50
2023-03-27T23:48:29.531Z,72.50
2023-03-27T23:50:57.107Z,72.50
2023-03-27T23:53:26.274Z,72.40
2023-03-27T23:55:54.505Z,72.50
2023-03-27T23:58:21.787Z,72.50
